sensor_id;sensor_type;location;lat;lon;timestamp;pressure;altitude;pressure_sealevel;temperature;humidity
22104;BME280;11218;48.886;9.426;2023-05-02T00:02:08;98083.00;;;10.97;82.67
22104;BME280;11218;48.886;9.426;2023-05-02T00:04:36;98078.38;;;10.93;82.60
22104;BME280;11218;48.886;9.426;2023-05-02T00:07:06;98078.88;;;10.90;83.42
22104;BME280;11218;48.886;9.426;2023-05-02T00:09:34;98073.19;;;10.86;83.55
22104;BME280;11218;48.886;9.426;2023-05-02T00:12:02;98074.25;;;10.85;83.33
22104;BME280;11218;48.886;9.426;2023-05-02T00:14:30;98076.44;;;10.88;82.77
22104;BME280;11218;48.886;9.426;2023-05-02T00:16:58;98081.25;;;10.86;82.73
22104;BME280;11218;48.886;9.426;2023-05-02T00:19:27;98082.38;;;10.90;82.34
22104;BME280;11218;48.886;9.426;2023-05-02T00:21:55;98082.81;;;10.82;83.04
22104;BME280;11218;48.886;9.426;2023-05-02T00:24:24;98077.88;;;10.74;83.51
22104;BME280;11218;48.886;9.426;2023-05-02T00:26:52;98077.88;;;10.74;83.63
22104;BME280;11218;48.886;9.426;2023-05-02T00:29:20;98077.81;;;10.69;83.40
22104;BME280;11218;48.886;9.426;2023-05-02T00:31:48;98086.94;;;10.68;84.00
22104;BME280;11218;48.886;9.426;2023-05-02T00:34:16;98077.81;;;10.69;83.88
22104;BME280;11218;48.886;9.426;2023-05-02T00:36:44;98070.78;;;10.68;83.64
22104;BME280;11218;48.886;9.426;2023-05-02T00:39:12;98072.59;;;10.62;84.23
22104;BME280;11218;48.886;9.426;2023-05-02T00:41:41;98068.78;;;10.58;85.02
22104;BME280;11218;48.886;9.426;2023-05-02T00:44:09;98063.97;;;10.60;83.94
22104;BME280;11218;48.886;9.426;2023-05-02T00:46:37;98074.47;;;10.62;84.60
22104;BME280;11218;48.886;9.426;2023-05-02T00:49:05;98069.91;;;10.62;84.39
22104;BME280;11218;48.886;9.426;2023-05-02T00:51:33;98069.66;;;10.64;84.51
22104;BME280;11218;48.886;9.426;2023-05-02T00:54:02;98080.69;;;10.62;84.05
22104;BME280;11218;48.886;9.426;2023-05-02T00:56:31;98071.53;;;10.63;83.72
22104;BME280;11218;48.886;9.426;2023-05-02T00:59:00;98078.53;;;10.64;83.30
22104;BME280;11218;48.886;9.426;2023-05-02T01:01:35;98079.03;;;10.61;83.27
22104;BME280;11218;48.886;9.426;2023-05-02T01:04:18;98077.91;;;10.57;83.17
22104;BME280;11218;48.886;9.426;2023-05-02T01:07:04;98081.66;;;10.56;83.21
22104;BME280;11218;48.886;9.426;2023-05-02T01:09:42;98085.66;;;10.53;83.11
22104;BME280;11218;48.886;9.426;2023-05-02T01:12:23;98077.03;;;10.51;82.84
22104;BME280;11218;48.886;9.426;2023-05-02T01:14:56;98082.41;;;10.51;83.06
22104;BME280;11218;48.886;9.426;2023-05-02T01:17:29;98089.34;;;10.47;82.84
22104;BME280;11218;48.886;9.426;2023-05-02T01:20:02;98088.78;;;10.45;82.96
22104;BME280;11218;48.886;9.426;2023-05-02T01:22:32;98095.22;;;10.44;82.86
22104;BME280;11218;48.886;9.426;2023-05-02T01:25:06;98097.59;;;10.41;83.34
22104;BME280;11218;48.886;9.426;2023-05-02T01:27:39;98093.81;;;10.37;83.06
22104;BME280;11218;48.886;9.426;2023-05-02T01:30:12;98100.00;;;10.37;83.40
22104;BME280;11218;48.886;9.426;2023-05-02T01:32:44;98098.38;;;10.36;82.71
22104;BME280;11218;48.886;9.426;2023-05-02T01:35:14;98103.19;;;10.34;83.09
22104;BME280;11218;48.886;9.426;2023-05-02T01:37:44;98096.97;;;10.34;82.86
22104;BME280;11218;48.886;9.426;2023-05-02T01:40:16;98105.31;;;10.32;83.57
22104;BME280;11218;48.886;9.426;2023-05-02T01:42:46;98100.16;;;10.31;83.97
22104;BME280;11218;48.886;9.426;2023-05-02T01:45:18;98101.72;;;10.27;84.98
22104;BME280;11218;48.886;9.426;2023-05-02T01:47:47;98099.53;;;10.24;85.14
22104;BME280;11218;48.886;9.426;2023-05-02T01:50:20;98103.28;;;10.23;85.45
22104;BME280;11218;48.886;9.426;2023-05-02T01:52:50;98104.56;;;10.20;84.51
22104;BME280;11218;48.886;9.426;2023-05-02T01:55:20;98105.59;;;10.19;84.59
22104;BME280;11218;48.886;9.426;2023-05-02T01:57:49;98116.38;;;10.19;84.84
22104;BME280;11218;48.886;9.426;2023-05-02T02:00:21;98109.34;;;10.18;84.56
22104;BME280;11218;48.886;9.426;2023-05-02T02:02:52;98107.25;;;10.20;83.38
22104;BME280;11218;48.886;9.426;2023-05-02T02:05:23;98108.28;;;10.19;83.72
22104;BME280;11218;48.886;9.426;2023-05-02T02:07:53;98110.78;;;10.20;83.74
22104;BME280;11218;48.886;9.426;2023-05-02T02:10:22;98110.16;;;10.18;85.16
22104;BME280;11218;48.886;9.426;2023-05-02T02:12:59;98117.22;;;10.19;85.82
22104;BME280;11218;48.886;9.426;2023-05-02T02:15:33;98115.56;;;10.18;86.33
22104;BME280;11218;48.886;9.426;2023-05-02T02:18:06;98109.72;;;10.22;85.66
22104;BME280;11218;48.886;9.426;2023-05-02T02:20:36;98115.78;;;10.17;86.95
22104;BME280;11218;48.886;9.426;2023-05-02T02:23:06;98127.97;;;10.19;86.57
22104;BME280;11218;48.886;9.426;2023-05-02T02:25:36;98116.84;;;10.16;87.17
22104;BME280;11218;48.886;9.426;2023-05-02T02:28:06;98120.84;;;10.13;86.95
22104;BME280;11218;48.886;9.426;2023-05-02T02:30:35;98137.47;;;10.10;86.50
22104;BME280;11218;48.886;9.426;2023-05-02T02:33:03;98134.22;;;10.08;86.07
22104;BME280;11218;48.886;9.426;2023-05-02T02:35:36;98142.53;;;10.07;85.70
22104;BME280;11218;48.886;9.426;2023-05-02T02:38:12;98151.31;;;10.02;85.13
22104;BME280;11218;48.886;9.426;2023-05-02T02:40:44;98151.00;;;9.99;84.93
22104;BME280;11218;48.886;9.426;2023-05-02T02:43:19;98153.91;;;9.97;84.59
22104;BME280;11218;48.886;9.426;2023-05-02T02:45:58;98150.91;;;9.94;84.38
22104;BME280;11218;48.886;9.426;2023-05-02T02:48:33;98150.56;;;9.90;84.35
22104;BME280;11218;48.886;9.426;2023-05-02T02:51:07;98149.19;;;9.87;84.28
22104;BME280;11218;48.886;9.426;2023-05-02T02:53:46;98164.16;;;9.83;83.94
22104;BME280;11218;48.886;9.426;2023-05-02T02:56:25;98163.84;;;9.80;83.93
22104;BME280;11218;48.886;9.426;2023-05-02T02:58:56;98168.06;;;9.76;84.15
22104;BME280;11218;48.886;9.426;2023-05-02T03:01:30;98174.50;;;9.75;83.96
22104;BME280;11218;48.886;9.426;2023-05-02T03:03:59;98173.19;;;9.77;83.96
22104;BME280;11218;48.886;9.426;2023-05-02T03:06:30;98179.38;;;9.78;83.58
22104;BME280;11218;48.886;9.426;2023-05-02T03:08:58;98180.69;;;9.75;84.01
22104;BME280;11218;48.886;9.426;2023-05-02T03:11:27;98177.19;;;9.75;84.16
22104;BME280;11218;48.886;9.426;2023-05-02T03:13:55;98188.97;;;9.74;83.78
22104;BME280;11218;48.886;9.426;2023-05-02T03:16:39;98189.22;;;9.72;83.80
22104;BME280;11218;48.886;9.426;2023-05-02T03:19:08;98194.38;;;9.74;84.24
22104;BME280;11218;48.886;9.426;2023-05-02T03:21:36;98192.25;;;9.76;83.65
22104;BME280;11218;48.886;9.426;2023-05-02T03:24:04;98196.00;;;9.75;83.99
22104;BME280;11218;48.886;9.426;2023-05-02T03:26:32;98197.88;;;9.74;83.86
22104;BME280;11218;48.886;9.426;2023-05-02T03:29:01;98204.28;;;9.73;83.70
22104;BME280;11218;48.886;9.426;2023-05-02T03:31:30;98205.59;;;9.71;83.36
22104;BME280;11218;48.886;9.426;2023-05-02T03:33:59;98207.53;;;9.59;83.76
22104;BME280;11218;48.886;9.426;2023-05-02T03:36:27;98197.97;;;9.51;84.10
22104;BME280;11218;48.886;9.426;2023-05-02T03:38:55;98202.53;;;9.50;83.40
22104;BME280;11218;48.886;9.426;2023-05-02T03:41:23;98213.06;;;9.52;83.77
22104;BME280;11218;48.886;9.426;2023-05-02T03:43:51;98216.22;;;9.49;84.40
22104;BME280;11218;48.886;9.426;2023-05-02T03:46:20;98216.44;;;9.47;84.38
22104;BME280;11218;48.886;9.426;2023-05-02T03:48:48;98220.09;;;9.41;84.79
22104;BME280;11218;48.886;9.426;2023-05-02T03:51:17;98224.41;;;9.42;84.87
22104;BME280;11218;48.886;9.426;2023-05-02T03:53:45;98213.41;;;9.44;85.08
22104;BME280;11218;48.886;9.426;2023-05-02T03:56:16;98223.72;;;9.35;85.64
22104;BME280;11218;48.886;9.426;2023-05-02T03:58:46;98227.00;;;9.37;86.08
22104;BME280;11218;48.886;9.426;2023-05-02T04:01:15;98225.81;;;9.45;86.57
22104;BME280;11218;48.886;9.426;2023-05-02T04:03:43;98239.91;;;9.52;86.61
22104;BME280;11218;48.886;9.426;2023-05-02T04:06:12;98242.59;;;9.52;86.24
22104;BME280;11218;48.886;9.426;2023-05-02T04:08:42;98236.03;;;9.60;86.50
22104;BME280;11218;48.886;9.426;2023-05-02T04:11:10;98238.25;;;9.63;87.03
22104;BME280;11218;48.886;9.426;2023-05-02T04:13:38;98239.47;;;9.72;86.99
22104;BME280;11218;48.886;9.426;2023-05-02T04:16:07;98242.03;;;9.78;87.33
22104;BME280;11218;48.886;9.426;2023-05-02T04:18:35;98243.41;;;9.81;87.26
22104;BME280;11218;48.886;9.426;2023-05-02T04:21:03;98244.81;;;9.83;87.84
22104;BME280;11218;48.886;9.426;2023-05-02T04:23:31;98257.78;;;9.86;87.79
22104;BME280;11218;48.886;9.426;2023-05-02T04:26:01;98254.47;;;9.96;87.07
22104;BME280;11218;48.886;9.426;2023-05-02T04:28:29;98254.59;;;9.89;88.38
22104;BME280;11218;48.886;9.426;2023-05-02T04:30:57;98252.50;;;9.92;87.81
22104;BME280;11218;48.886;9.426;2023-05-02T04:33:25;98263.00;;;9.93;88.70
22104;BME280;11218;48.886;9.426;2023-05-02T04:35:53;98263.34;;;9.97;88.71
22104;BME280;11218;48.886;9.426;2023-05-02T04:38:22;98266.63;;;9.99;88.80
22104;BME280;11218;48.886;9.426;2023-05-02T04:40:50;98270.69;;;10.01;88.39
22104;BME280;11218;48.886;9.426;2023-05-02T04:43:20;98275.59;;;10.04;88.34
22104;BME280;11218;48.886;9.426;2023-05-02T04:45:50;98271.63;;;10.07;88.48
22104;BME280;11218;48.886;9.426;2023-05-02T04:48:18;98266.81;;;10.09;88.37
22104;BME280;11218;48.886;9.426;2023-05-02T04:50:48;98273.34;;;10.13;88.26
22104;BME280;11218;48.886;9.426;2023-05-02T04:53:16;98276.59;;;10.15;88.21
22104;BME280;11218;48.886;9.426;2023-05-02T04:55:45;98270.75;;;10.18;88.40
22104;BME280;11218;48.886;9.426;2023-05-02T04:58:13;98266.78;;;10.20;88.28
22104;BME280;11218;48.886;9.426;2023-05-02T05:00:42;98281.38;;;10.25;88.15
22104;BME280;11218;48.886;9.426;2023-05-02T05:03:10;98272.25;;;10.26;88.67
22104;BME280;11218;48.886;9.426;2023-05-02T05:05:38;98281.97;;;10.27;88.93
22104;BME280;11218;48.886;9.426;2023-05-02T05:08:07;98287.09;;;10.28;88.79
22104;BME280;11218;48.886;9.426;2023-05-02T05:10:36;98272.13;;;10.32;88.64
22104;BME280;11218;48.886;9.426;2023-05-02T05:13:05;98286.97;;;10.35;88.90
22104;BME280;11218;48.886;9.426;2023-05-02T05:15:34;98288.09;;;10.39;88.76
22104;BME280;11218;48.886;9.426;2023-05-02T05:18:04;98295.66;;;10.42;88.96
22104;BME280;11218;48.886;9.426;2023-05-02T05:20:32;98290.63;;;10.45;89.00
22104;BME280;11218;48.886;9.426;2023-05-02T05:23:00;98301.38;;;10.45;88.23
22104;BME280;11218;48.886;9.426;2023-05-02T05:25:28;98312.88;;;10.41;88.15
22104;BME280;11218;48.886;9.426;2023-05-02T05:27:56;98315.31;;;10.42;87.86
22104;BME280;11218;48.886;9.426;2023-05-02T05:30:24;98331.78;;;10.46;88.01
22104;BME280;11218;48.886;9.426;2023-05-02T05:32:52;98329.88;;;10.58;86.28
22104;BME280;11218;48.886;9.426;2023-05-02T05:35:22;98341.34;;;10.53;86.76
22104;BME280;11218;48.886;9.426;2023-05-02T05:37:51;98333.66;;;10.45;86.65
22104;BME280;11218;48.886;9.426;2023-05-02T05:40:19;98345.69;;;10.54;87.07
22104;BME280;11218;48.886;9.426;2023-05-02T05:42:48;98346.84;;;10.59;87.53
22104;BME280;11218;48.886;9.426;2023-05-02T05:45:16;98355.56;;;10.66;87.12
22104;BME280;11218;48.886;9.426;2023-05-02T05:47:45;98355.19;;;10.74;87.14
22104;BME280;11218;48.886;9.426;2023-05-02T05:50:13;98351.03;;;10.83;86.89
22104;BME280;11218;48.886;9.426;2023-05-02T05:52:42;98351.38;;;10.86;87.02
22104;BME280;11218;48.886;9.426;2023-05-02T05:55:11;98361.50;;;10.96;87.09
22104;BME280;11218;48.886;9.426;2023-05-02T05:57:39;98357.34;;;11.05;87.01
22104;BME280;11218;48.886;9.426;2023-05-02T06:00:08;98365.25;;;11.12;86.85
22104;BME280;11218;48.886;9.426;2023-05-02T06:02:36;98364.47;;;11.16;86.16
22104;BME280;11218;48.886;9.426;2023-05-02T06:05:05;98363.38;;;11.12;85.48
22104;BME280;11218;48.886;9.426;2023-05-02T06:07:33;98369.56;;;11.13;85.64
22104;BME280;11218;48.886;9.426;2023-05-02T06:10:03;98365.41;;;11.05;86.03
22104;BME280;11218;48.886;9.426;2023-05-02T06:12:32;98374.63;;;11.09;86.80
22104;BME280;11218;48.886;9.426;2023-05-02T06:14:59;98372.50;;;11.11;86.50
22104;BME280;11218;48.886;9.426;2023-05-02T06:17:28;98374.16;;;11.12;86.43
22104;BME280;11218;48.886;9.426;2023-05-02T06:19:56;98374.16;;;11.12;86.44
22104;BME280;11218;48.886;9.426;2023-05-02T06:22:25;98388.16;;;11.14;86.69
22104;BME280;11218;48.886;9.426;2023-05-02T06:24:53;98389.25;;;11.13;86.70
22104;BME280;11218;48.886;9.426;2023-05-02T06:27:23;98391.19;;;11.18;86.87
22104;BME280;11218;48.886;9.426;2023-05-02T06:29:51;98384.50;;;11.20;86.11
22104;BME280;11218;48.886;9.426;2023-05-02T06:32:19;98396.16;;;11.26;86.47
22104;BME280;11218;48.886;9.426;2023-05-02T06:34:47;98396.41;;;11.25;86.23
22104;BME280;11218;48.886;9.426;2023-05-02T06:37:15;98399.91;;;11.25;86.36
22104;BME280;11218;48.886;9.426;2023-05-02T06:39:43;98405.22;;;11.20;86.77
22104;BME280;11218;48.886;9.426;2023-05-02T06:42:11;98402.94;;;11.29;86.82
22104;BME280;11218;48.886;9.426;2023-05-02T06:44:40;98411.13;;;11.34;86.86
22104;BME280;11218;48.886;9.426;2023-05-02T06:47:08;98413.66;;;11.40;87.35
22104;BME280;11218;48.886;9.426;2023-05-02T06:49:36;98411.94;;;11.51;87.34
22104;BME280;11218;48.886;9.426;2023-05-02T06:52:04;98420.75;;;11.63;87.01
22104;BME280;11218;48.886;9.426;2023-05-02T06:54:32;98420.06;;;11.73;86.69
22104;BME280;11218;48.886;9.426;2023-05-02T06:57:00;98417.22;;;11.79;85.94
22104;BME280;11218;48.886;9.426;2023-05-02T06:59:28;98427.03;;;11.86;85.48
22104;BME280;11218;48.886;9.426;2023-05-02T07:01:58;98431.16;;;11.93;84.34
22104;BME280;11218;48.886;9.426;2023-05-02T07:04:27;98423.56;;;11.90;84.82
22104;BME280;11218;48.886;9.426;2023-05-02T07:06:55;98427.16;;;11.96;84.33
22104;BME280;11218;48.886;9.426;2023-05-02T07:09:23;98430.09;;;11.94;84.71
22104;BME280;11218;48.886;9.426;2023-05-02T07:11:52;98423.94;;;11.99;84.89
22104;BME280;11218;48.886;9.426;2023-05-02T07:14:21;98431.06;;;12.05;84.38
22104;BME280;11218;48.886;9.426;2023-05-02T07:16:49;98437.25;;;12.05;83.96
22104;BME280;11218;48.886;9.426;2023-05-02T07:19:19;98440.03;;;12.10;82.76
22104;BME280;11218;48.886;9.426;2023-05-02T07:21:46;98443.16;;;12.02;83.22
22104;BME280;11218;48.886;9.426;2023-05-02T07:24:15;98442.34;;;12.02;84.08
22104;BME280;11218;48.886;9.426;2023-05-02T07:26:44;98447.81;;;12.07;83.88
22104;BME280;11218;48.886;9.426;2023-05-02T07:29:12;98457.03;;;12.11;83.92
22104;BME280;11218;48.886;9.426;2023-05-02T07:31:40;98459.72;;;12.11;84.37
22104;BME280;11218;48.886;9.426;2023-05-02T07:34:08;98447.69;;;12.18;83.71
22104;BME280;11218;48.886;9.426;2023-05-02T07:36:38;98454.47;;;12.21;83.66
22104;BME280;11218;48.886;9.426;2023-05-02T07:39:06;98454.16;;;12.17;83.82
22104;BME280;11218;48.886;9.426;2023-05-02T07:41:34;98452.91;;;12.25;83.85
22104;BME280;11218;48.886;9.426;2023-05-02T07:44:02;98455.28;;;12.22;83.89
22104;BME280;11218;48.886;9.426;2023-05-02T07:46:30;98448.50;;;12.19;83.84
22104;BME280;11218;48.886;9.426;2023-05-02T07:48:58;98454.09;;;12.34;83.31
22104;BME280;11218;48.886;9.426;2023-05-02T07:51:26;98456.50;;;12.31;83.27
22104;BME280;11218;48.886;9.426;2023-05-02T07:53:56;98456.81;;;12.34;82.59
22104;BME280;11218;48.886;9.426;2023-05-02T07:56:24;98462.53;;;12.38;83.09
22104;BME280;11218;48.886;9.426;2023-05-02T07:58:52;98467.25;;;12.47;81.44
22104;BME280;11218;48.886;9.426;2023-05-02T08:01:21;98468.00;;;12.43;80.85
22104;BME280;11218;48.886;9.426;2023-05-02T08:03:49;98479.34;;;12.45;81.40
22104;BME280;11218;48.886;9.426;2023-05-02T08:06:18;98482.69;;;12.52;81.00
22104;BME280;11218;48.886;9.426;2023-05-02T08:08:46;98481.31;;;12.49;81.64
22104;BME280;11218;48.886;9.426;2023-05-02T08:11:16;98485.38;;;12.52;81.45
22104;BME280;11218;48.886;9.426;2023-05-02T08:13:44;98487.34;;;12.57;80.95
22104;BME280;11218;48.886;9.426;2023-05-02T08:16:12;98480.63;;;12.59;80.16
22104;BME280;11218;48.886;9.426;2023-05-02T08:18:40;98478.84;;;12.48;81.24
22104;BME280;11218;48.886;9.426;2023-05-02T08:21:09;98486.13;;;12.47;81.43
22104;BME280;11218;48.886;9.426;2023-05-02T08:23:37;98485.69;;;12.56;81.20
22104;BME280;11218;48.886;9.426;2023-05-02T08:26:05;98493.88;;;12.61;81.80
22104;BME280;11218;48.886;9.426;2023-05-02T08:28:34;98495.91;;;12.75;80.95
22104;BME280;11218;48.886;9.426;2023-05-02T08:31:02;98496.47;;;12.77;79.86
22104;BME280;11218;48.886;9.426;2023-05-02T08:33:31;98498.66;;;12.80;79.51
22104;BME280;11218;48.886;9.426;2023-05-02T08:35:58;98495.78;;;12.87;79.47
22104;BME280;11218;48.886;9.426;2023-05-02T08:38:27;98500.41;;;12.92;79.22
22104;BME280;11218;48.886;9.426;2023-05-02T08:40:55;98503.78;;;13.04;78.91
22104;BME280;11218;48.886;9.426;2023-05-02T08:43:23;98513.53;;;13.05;78.27
22104;BME280;11218;48.886;9.426;2023-05-02T08:45:53;98518.63;;;13.01;79.32
22104;BME280;11218;48.886;9.426;2023-05-02T08:48:23;98514.34;;;13.05;79.90
22104;BME280;11218;48.886;9.426;2023-05-02T08:50:52;98514.81;;;13.19;79.67
22104;BME280;11218;48.886;9.426;2023-05-02T08:53:22;98506.59;;;13.36;79.04
22104;BME280;11218;48.886;9.426;2023-05-02T08:55:51;98506.31;;;13.37;78.36
22104;BME280;11218;48.886;9.426;2023-05-02T08:58:22;98515.63;;;13.52;78.51
22104;BME280;11218;48.886;9.426;2023-05-02T09:00:52;98506.44;;;13.53;78.27
22104;BME280;11218;48.886;9.426;2023-05-02T09:03:30;98508.94;;;13.59;77.89
22104;BME280;11218;48.886;9.426;2023-05-02T09:06:04;98515.50;;;13.68;77.89
22104;BME280;11218;48.886;9.426;2023-05-02T09:08:32;98505.84;;;13.77;77.78
22104;BME280;11218;48.886;9.426;2023-05-02T09:11:01;98515.16;;;13.92;77.22
22104;BME280;11218;48.886;9.426;2023-05-02T09:13:32;98513.13;;;14.09;75.59
22104;BME280;11218;48.886;9.426;2023-05-02T09:16:03;98505.25;;;14.12;73.41
22104;BME280;11218;48.886;9.426;2023-05-02T09:18:33;98518.50;;;14.04;74.49
22104;BME280;11218;48.886;9.426;2023-05-02T09:21:04;98517.72;;;14.13;75.40
22104;BME280;11218;48.886;9.426;2023-05-02T09:23:36;98514.81;;;14.25;75.73
22104;BME280;11218;48.886;9.426;2023-05-02T09:26:16;98517.31;;;14.37;74.12
22104;BME280;11218;48.886;9.426;2023-05-02T09:28:45;98519.31;;;14.46;73.79
22104;BME280;11218;48.886;9.426;2023-05-02T09:31:17;98515.53;;;14.48;73.93
22104;BME280;11218;48.886;9.426;2023-05-02T09:34:08;98521.81;;;14.58;73.69
22104;BME280;11218;48.886;9.426;2023-05-02T09:36:40;98519.22;;;14.84;71.13
22104;BME280;11218;48.886;9.426;2023-05-02T09:39:10;98516.47;;;14.78;70.79
22104;BME280;11218;48.886;9.426;2023-05-02T09:41:40;98511.91;;;14.84;71.04
22104;BME280;11218;48.886;9.426;2023-05-02T09:44:09;98519.25;;;14.99;71.66
22104;BME280;11218;48.886;9.426;2023-05-02T09:46:52;98514.72;;;15.25;69.00
22104;BME280;11218;48.886;9.426;2023-05-02T09:49:38;98514.44;;;15.31;69.97
22104;BME280;11218;48.886;9.426;2023-05-02T09:52:10;98511.22;;;15.55;67.99
22104;BME280;11218;48.886;9.426;2023-05-02T09:54:39;98513.69;;;15.76;67.09
22104;BME280;11218;48.886;9.426;2023-05-02T09:57:07;98511.50;;;15.99;66.59
22104;BME280;11218;48.886;9.426;2023-05-02T09:59:37;98510.06;;;16.37;66.30
22104;BME280;11218;48.886;9.426;2023-05-02T10:02:07;98511.09;;;16.56;65.57
22104;BME280;11218;48.886;9.426;2023-05-02T10:04:38;98513.00;;;16.66;64.12
22104;BME280;11218;48.886;9.426;2023-05-02T10:07:08;98509.72;;;16.69;62.63
22104;BME280;11218;48.886;9.426;2023-05-02T10:09:41;98511.00;;;16.87;62.19
22104;BME280;11218;48.886;9.426;2023-05-02T10:12:13;98513.97;;;16.95;62.76
22104;BME280;11218;48.886;9.426;2023-05-02T10:14:47;98515.28;;;17.03;62.75
22104;BME280;11218;48.886;9.426;2023-05-02T10:17:20;98512.59;;;16.98;62.29
22104;BME280;11218;48.886;9.426;2023-05-02T10:19:53;98518.63;;;17.34;62.94
22104;BME280;11218;48.886;9.426;2023-05-02T10:22:24;98522.13;;;17.39;60.99
22104;BME280;11218;48.886;9.426;2023-05-02T10:24:52;98517.88;;;17.23;61.32
22104;BME280;11218;48.886;9.426;2023-05-02T10:27:21;98517.66;;;17.15;60.15
22104;BME280;11218;48.886;9.426;2023-05-02T10:29:50;98522.53;;;17.18;60.22
22104;BME280;11218;48.886;9.426;2023-05-02T10:32:21;98515.41;;;17.27;62.08
22104;BME280;11218;48.886;9.426;2023-05-02T10:34:50;98515.53;;;17.51;59.53
22104;BME280;11218;48.886;9.426;2023-05-02T10:37:19;98515.03;;;17.44;59.88
22104;BME280;11218;48.886;9.426;2023-05-02T10:39:48;98515.22;;;17.57;59.76
22104;BME280;11218;48.886;9.426;2023-05-02T10:42:18;98504.09;;;17.49;61.19
22104;BME280;11218;48.886;9.426;2023-05-02T10:44:48;98507.25;;;17.71;60.36
22104;BME280;11218;48.886;9.426;2023-05-02T10:47:18;98502.19;;;17.88;57.62
22104;BME280;11218;48.886;9.426;2023-05-02T10:49:53;98499.97;;;17.90;58.38
22104;BME280;11218;48.886;9.426;2023-05-02T10:52:26;98502.00;;;18.09;58.62
22104;BME280;11218;48.886;9.426;2023-05-02T10:55:17;98503.53;;;18.20;56.01
22104;BME280;11218;48.886;9.426;2023-05-02T10:58:20;98499.69;;;17.92;56.10
22104;BME280;11218;48.886;9.426;2023-05-02T11:00:49;98485.59;;;17.85;56.17
22104;BME280;11218;48.886;9.426;2023-05-02T11:03:54;98492.91;;;18.18;58.03
22104;BME280;11218;48.886;9.426;2023-05-02T11:06:24;98481.44;;;18.45;55.04
22104;BME280;11218;48.886;9.426;2023-05-02T11:11:56;98478.25;;;18.62;54.79
22104;BME280;11218;48.886;9.426;2023-05-02T11:14:48;98478.19;;;18.67;52.02
22104;BME280;11218;48.886;9.426;2023-05-02T11:17:16;98474.44;;;18.63;53.54
22104;BME280;11218;48.886;9.426;2023-05-02T11:23:18;98474.69;;;18.85;51.71
22104;BME280;11218;48.886;9.426;2023-05-02T11:25:49;98473.56;;;18.67;52.54
22104;BME280;11218;48.886;9.426;2023-05-02T11:28:42;98477.19;;;18.82;52.01
22104;BME280;11218;48.886;9.426;2023-05-02T11:34:22;98475.16;;;18.92;53.02
22104;BME280;11218;48.886;9.426;2023-05-02T11:36:50;98475.91;;;19.17;52.18
22104;BME280;11218;48.886;9.426;2023-05-02T11:39:19;98485.19;;;19.34;50.27
22104;BME280;11218;48.886;9.426;2023-05-02T11:41:48;98478.13;;;19.15;49.75
22104;BME280;11218;48.886;9.426;2023-05-02T11:44:16;98476.72;;;19.17;50.02
22104;BME280;11218;48.886;9.426;2023-05-02T11:46:44;98469.25;;;19.04;51.52
22104;BME280;11218;48.886;9.426;2023-05-02T11:49:13;98467.50;;;19.13;51.65
22104;BME280;11218;48.886;9.426;2023-05-02T11:51:41;98461.00;;;19.09;52.44
22104;BME280;11218;48.886;9.426;2023-05-02T11:54:19;98475.63;;;19.18;50.55
22104;BME280;11218;48.886;9.426;2023-05-02T11:56:47;98471.91;;;19.09;50.63
22104;BME280;11218;48.886;9.426;2023-05-02T11:59:15;98464.63;;;19.04;50.86
22104;BME280;11218;48.886;9.426;2023-05-02T12:01:47;98469.63;;;18.97;51.06
22104;BME280;11218;48.886;9.426;2023-05-02T12:04:15;98464.69;;;18.99;51.94
22104;BME280;11218;48.886;9.426;2023-05-02T12:06:53;98468.16;;;19.24;51.32
22104;BME280;11218;48.886;9.426;2023-05-02T12:09:23;98464.59;;;19.42;50.30
22104;BME280;11218;48.886;9.426;2023-05-02T12:11:51;98465.19;;;19.39;50.40
22104;BME280;11218;48.886;9.426;2023-05-02T12:14:27;98474.63;;;19.47;50.11
22104;BME280;11218;48.886;9.426;2023-05-02T12:16:57;98472.72;;;19.10;49.75
22104;BME280;11218;48.886;9.426;2023-05-02T12:19:26;98477.38;;;18.66;50.41
22104;BME280;11218;48.886;9.426;2023-05-02T12:21:54;98478.97;;;18.49;51.19
22104;BME280;11218;48.886;9.426;2023-05-02T12:24:24;98473.16;;;18.31;51.72
22104;BME280;11218;48.886;9.426;2023-05-02T12:27:08;98494.91;;;18.08;53.18
22104;BME280;11218;48.886;9.426;2023-05-02T12:29:37;98492.25;;;17.73;54.38
22104;BME280;11218;48.886;9.426;2023-05-02T12:32:05;98497.84;;;17.48;55.45
22104;BME280;11218;48.886;9.426;2023-05-02T12:34:34;98504.25;;;17.28;55.81
22104;BME280;11218;48.886;9.426;2023-05-02T12:37:04;98507.09;;;17.08;57.53
22104;BME280;11218;48.886;9.426;2023-05-02T12:39:37;98516.09;;;17.03;61.39
22104;BME280;11218;48.886;9.426;2023-05-02T12:42:09;98514.78;;;16.96;64.98
22104;BME280;11218;48.886;9.426;2023-05-02T12:44:38;98510.75;;;16.88;64.83
22104;BME280;11218;48.886;9.426;2023-05-02T12:47:09;98513.75;;;16.82;64.09
22104;BME280;11218;48.886;9.426;2023-05-02T12:49:47;98516.78;;;16.70;66.32
22104;BME280;11218;48.886;9.426;2023-05-02T12:52:17;98518.72;;;16.54;68.35
22104;BME280;11218;48.886;9.426;2023-05-02T12:54:47;98514.91;;;16.50;69.04
22104;BME280;11218;48.886;9.426;2023-05-02T12:57:22;98527.97;;;16.48;67.29
22104;BME280;11218;48.886;9.426;2023-05-02T12:59:51;98526.09;;;16.38;68.00
22104;BME280;11218;48.886;9.426;2023-05-02T13:02:20;98526.38;;;16.37;68.21
22104;BME280;11218;48.886;9.426;2023-05-02T13:04:48;98532.06;;;16.46;68.33
22104;BME280;11218;48.886;9.426;2023-05-02T13:07:16;98533.94;;;16.50;66.77
22104;BME280;11218;48.886;9.426;2023-05-02T13:09:45;98519.84;;;16.43;67.10
22104;BME280;11218;48.886;9.426;2023-05-02T13:12:14;98521.47;;;16.39;66.75
22104;BME280;11218;48.886;9.426;2023-05-02T13:14:43;98525.53;;;16.41;65.65
22104;BME280;11218;48.886;9.426;2023-05-02T13:17:11;98523.91;;;16.46;63.74
22104;BME280;11218;48.886;9.426;2023-05-02T13:19:40;98516.81;;;16.55;62.81
22104;BME280;11218;48.886;9.426;2023-05-02T13:22:19;98522.53;;;16.53;62.55
22104;BME280;11218;48.886;9.426;2023-05-02T13:24:47;98514.09;;;16.55;63.09
22104;BME280;11218;48.886;9.426;2023-05-02T13:27:17;98519.78;;;16.58;63.82
22104;BME280;11218;48.886;9.426;2023-05-02T13:29:46;98508.09;;;16.58;61.74